sensor_id;sensor_type;location;lat;lon;timestamp;temperature;humidity
62464;SHT31;48512;48.552;9.380;2023-02-28T00:00:09;-0.61;67.30
62464;SHT31;48512;48.552;9.380;2023-02-28T00:02:40;-0.58;67.23
62464;SHT31;48512;48.552;9.380;2023-02-28T00:05:07;-0.66;67.45
62464;SHT31;48512;48.552;9.380;2023-02-28T00:07:33;-0.74;67.88
62464;SHT31;48512;48.552;9.380;2023-02-28T00:09:59;-0.72;68.07
62464;SHT31;48512;48.552;9.380;2023-02-28T00:12:25;-0.65;68.02
62464;SHT31;48512;48.552;9.380;2023-02-28T00:14:51;-0.60;68.21
62464;SHT31;48512;48.552;9.380;2023-02-28T00:17:17;-0.61;68.01
62464;SHT31;48512;48.552;9.380;2023-02-28T00:19:49;-0.65;68.01
62464;SHT31;48512;48.552;9.380;2023-02-28T00:22:17;-0.74;68.34
62464;SHT31;48512;48.552;9.380;2023-02-28T00:24:42;-0.68;68.40
62464;SHT31;48512;48.552;9.380;2023-02-28T00:27:08;-0.69;68.34
62464;SHT31;48512;48.552;9.380;2023-02-28T00:29:33;-0.66;68.31
62464;SHT31;48512;48.552;9.380;2023-02-28T00:31:59;-0.62;68.37
62464;SHT31;48512;48.552;9.380;2023-02-28T00:34:24;-0.55;68.06
62464;SHT31;48512;48.552;9.380;2023-02-28T00:36:49;-0.71;68.26
62464;SHT31;48512;48.552;9.380;2023-02-28T00:39:16;-0.68;68.29
62464;SHT31;48512;48.552;9.380;2023-02-28T00:41:41;-0.66;68.56
62464;SHT31;48512;48.552;9.380;2023-02-28T00:44:06;-0.78;68.78
62464;SHT31;48512;48.552;9.380;2023-02-28T00:46:32;-0.71;69.25
62464;SHT31;48512;48.552;9.380;2023-02-28T00:48:57;-0.75;69.66
62464;SHT31;48512;48.552;9.380;2023-02-28T00:51:23;-0.71;69.57
62464;SHT31;48512;48.552;9.380;2023-02-28T00:53:48;-0.78;70.09
62464;SHT31;48512;48.552;9.380;2023-02-28T00:56:14;-0.85;70.62
62464;SHT31;48512;48.552;9.380;2023-02-28T00:58:39;-0.75;70.94
62464;SHT31;48512;48.552;9.380;2023-02-28T01:01:05;-0.81;71.69
62464;SHT31;48512;48.552;9.380;2023-02-28T01:03:31;-0.83;71.91
62464;SHT31;48512;48.552;9.380;2023-02-28T01:05:56;-0.85;72.40
62464;SHT31;48512;48.552;9.380;2023-02-28T01:08:22;-0.74;72.49
62464;SHT31;48512;48.552;9.380;2023-02-28T01:10:48;-0.86;72.97
62464;SHT31;48512;48.552;9.380;2023-02-28T01:13:14;-0.88;73.32
62464;SHT31;48512;48.552;9.380;2023-02-28T01:15:48;-0.96;73.65
62464;SHT31;48512;48.552;9.380;2023-02-28T01:18:13;-0.86;73.56
62464;SHT31;48512;48.552;9.380;2023-02-28T01:20:39;-1.06;74.49
62464;SHT31;48512;48.552;9.380;2023-02-28T01:23:04;-0.91;74.16
62464;SHT31;48512;48.552;9.380;2023-02-28T01:25:30;-1.02;74.33
62464;SHT31;48512;48.552;9.380;2023-02-28T01:27:55;-1.04;74.62
62464;SHT31;48512;48.552;9.380;2023-02-28T01:30:21;-1.04;75.12
62464;SHT31;48512;48.552;9.380;2023-02-28T01:32:46;-0.92;74.91
62464;SHT31;48512;48.552;9.380;2023-02-28T01:35:12;-0.96;74.85
62464;SHT31;48512;48.552;9.380;2023-02-28T01:37:37;-0.93;75.05
62464;SHT31;48512;48.552;9.380;2023-02-28T01:40:03;-0.99;75.00
62464;SHT31;48512;48.552;9.380;2023-02-28T01:42:29;-1.02;75.60
62464;SHT31;48512;48.552;9.380;2023-02-28T01:47:31;-1.06;75.17
62464;SHT31;48512;48.552;9.380;2023-02-28T01:49:59;-1.19;75.84
62464;SHT31;48512;48.552;9.380;2023-02-28T01:52:26;-1.10;75.66
62464;SHT31;48512;48.552;9.380;2023-02-28T01:54:54;-1.10;75.57
62464;SHT31;48512;48.552;9.380;2023-02-28T01:57:24;-1.12;75.84
62464;SHT31;48512;48.552;9.380;2023-02-28T02:00:01;-1.07;75.94
62464;SHT31;48512;48.552;9.380;2023-02-28T02:02:30;-1.04;75.79
62464;SHT31;48512;48.552;9.380;2023-02-28T02:05:04;-1.03;75.62
62464;SHT31;48512;48.552;9.380;2023-02-28T02:07:33;-1.02;75.43
62464;SHT31;48512;48.552;9.380;2023-02-28T02:10:06;-0.97;75.21
62464;SHT31;48512;48.552;9.380;2023-02-28T02:12:39;-0.95;75.11
62464;SHT31;48512;48.552;9.380;2023-02-28T02:18:14;-0.92;74.14
62464;SHT31;48512;48.552;9.380;2023-02-28T02:35:35;-1.06;74.46
62464;SHT31;48512;48.552;9.380;2023-02-28T02:38:24;-1.07;74.81
62464;SHT31;48512;48.552;9.380;2023-02-28T02:43:52;-1.02;74.54
62464;SHT31;48512;48.552;9.380;2023-02-28T02:46:30;-1.04;74.71
62464;SHT31;48512;48.552;9.380;2023-02-28T02:49:00;-1.00;74.27
62464;SHT31;48512;48.552;9.380;2023-02-28T02:51:27;-0.97;74.43
62464;SHT31;48512;48.552;9.380;2023-02-28T02:54:02;-0.99;74.51
62464;SHT31;48512;48.552;9.380;2023-02-28T02:56:31;-1.13;74.49
62464;SHT31;48512;48.552;9.380;2023-02-28T02:59:07;-0.97;74.38
62464;SHT31;48512;48.552;9.380;2023-02-28T03:01:34;-0.92;74.15
62464;SHT31;48512;48.552;9.380;2023-02-28T03:04:06;-0.95;73.97
62464;SHT31;48512;48.552;9.380;2023-02-28T03:06:32;-0.95;74.02
62464;SHT31;48512;48.552;9.380;2023-02-28T03:08:59;-1.00;73.88
62464;SHT31;48512;48.552;9.380;2023-02-28T03:11:25;-1.02;74.31
62464;SHT31;48512;48.552;9.380;2023-02-28T03:16:55;-1.00;73.89
62464;SHT31;48512;48.552;9.380;2023-02-28T03:27:17;-0.95;74.69
62464;SHT31;48512;48.552;9.380;2023-02-28T03:29:50;-0.96;74.19
62464;SHT31;48512;48.552;9.380;2023-02-28T03:32:23;-1.03;74.41
62464;SHT31;48512;48.552;9.380;2023-02-28T03:37:25;-0.92;74.13
62464;SHT31;48512;48.552;9.380;2023-02-28T03:40:07;-1.00;74.56
62464;SHT31;48512;48.552;9.380;2023-02-28T03:42:36;-0.95;74.73
62464;SHT31;48512;48.552;9.380;2023-02-28T03:45:24;-0.93;74.71
62464;SHT31;48512;48.552;9.380;2023-02-28T03:50:25;-0.99;75.02
62464;SHT31;48512;48.552;9.380;2023-02-28T03:53:04;-0.93;75.27
62464;SHT31;48512;48.552;9.380;2023-02-28T03:55:32;-0.89;74.95
62464;SHT31;48512;48.552;9.380;2023-02-28T04:00:45;-0.88;74.84
62464;SHT31;48512;48.552;9.380;2023-02-28T04:03:12;-0.78;74.53
62464;SHT31;48512;48.552;9.380;2023-02-28T04:05:54;-0.72;74.61
62464;SHT31;48512;48.552;9.380;2023-02-28T04:08:21;-0.93;75.06
62464;SHT31;48512;48.552;9.380;2023-02-28T04:10:56;-1.02;75.25
62464;SHT31;48512;48.552;9.380;2023-02-28T04:13:23;-0.96;75.17
62464;SHT31;48512;48.552;9.380;2023-02-28T04:15:48;-1.02;75.32
62464;SHT31;48512;48.552;9.380;2023-02-28T04:18:14;-0.88;75.26
62464;SHT31;48512;48.552;9.380;2023-02-28T04:20:39;-0.86;75.10
62464;SHT31;48512;48.552;9.380;2023-02-28T04:23:05;-0.85;75.21
62464;SHT31;48512;48.552;9.380;2023-02-28T04:25:30;-0.91;75.30
62464;SHT31;48512;48.552;9.380;2023-02-28T04:27:55;-0.88;75.67
62464;SHT31;48512;48.552;9.380;2023-02-28T04:30:21;-0.97;75.86
62464;SHT31;48512;48.552;9.380;2023-02-28T04:32:46;-0.91;75.54
62464;SHT31;48512;48.552;9.380;2023-02-28T04:35:11;-0.86;75.42
62464;SHT31;48512;48.552;9.380;2023-02-28T04:37:37;-0.79;75.37
62464;SHT31;48512;48.552;9.380;2023-02-28T04:40:03;-0.81;75.34
62464;SHT31;48512;48.552;9.380;2023-02-28T04:42:29;-0.72;75.06
62464;SHT31;48512;48.552;9.380;2023-02-28T04:45:04;-0.76;74.82
62464;SHT31;48512;48.552;9.380;2023-02-28T04:47:30;-0.83;75.10
62464;SHT31;48512;48.552;9.380;2023-02-28T04:49:55;-0.81;75.08
62464;SHT31;48512;48.552;9.380;2023-02-28T04:52:21;-0.75;74.87
62464;SHT31;48512;48.552;9.380;2023-02-28T04:54:46;-0.82;75.78
62464;SHT31;48512;48.552;9.380;2023-02-28T04:57:12;-0.79;75.44
62464;SHT31;48512;48.552;9.380;2023-02-28T04:59:37;-0.72;75.54
62464;SHT31;48512;48.552;9.380;2023-02-28T05:02:03;-0.68;75.05
62464;SHT31;48512;48.552;9.380;2023-02-28T05:04:33;-0.78;75.26
62464;SHT31;48512;48.552;9.380;2023-02-28T05:07:00;-0.79;75.35
62464;SHT31;48512;48.552;9.380;2023-02-28T05:09:25;-0.74;75.25
62464;SHT31;48512;48.552;9.380;2023-02-28T05:11:50;-0.76;75.16
62464;SHT31;48512;48.552;9.380;2023-02-28T05:14:16;-0.66;75.35
62464;SHT31;48512;48.552;9.380;2023-02-28T05:16:41;-0.62;74.80
62464;SHT31;48512;48.552;9.380;2023-02-28T05:19:07;-0.83;75.20
62464;SHT31;48512;48.552;9.380;2023-02-28T05:21:38;-0.85;75.37
62464;SHT31;48512;48.552;9.380;2023-02-28T05:24:13;-0.78;75.20
62464;SHT31;48512;48.552;9.380;2023-02-28T05:26:41;-0.86;75.09
62464;SHT31;48512;48.552;9.380;2023-02-28T05:29:06;-0.76;75.24
62464;SHT31;48512;48.552;9.380;2023-02-28T05:31:32;-0.68;75.09
62464;SHT31;48512;48.552;9.380;2023-02-28T05:33:58;-0.71;75.42
62464;SHT31;48512;48.552;9.380;2023-02-28T05:36:24;-0.68;75.24
62464;SHT31;48512;48.552;9.380;2023-02-28T05:38:50;-0.65;75.36
62464;SHT31;48512;48.552;9.380;2023-02-28T05:41:16;-0.58;75.02
62464;SHT31;48512;48.552;9.380;2023-02-28T05:43:42;-0.65;74.87
62464;SHT31;48512;48.552;9.380;2023-02-28T05:46:12;-0.62;74.94
62464;SHT31;48512;48.552;9.380;2023-02-28T05:48:38;-0.54;74.70
62464;SHT31;48512;48.552;9.380;2023-02-28T05:51:05;-0.58;74.60
62464;SHT31;48512;48.552;9.380;2023-02-28T05:53:31;-0.58;74.69
62464;SHT31;48512;48.552;9.380;2023-02-28T05:55:56;-0.64;75.09
62464;SHT31;48512;48.552;9.380;2023-02-28T05:58:22;-0.62;75.08
62464;SHT31;48512;48.552;9.380;2023-02-28T06:00:48;-0.03;80.13
62464;SHT31;48512;48.552;9.380;2023-02-28T06:03:14;-0.23;76.71
62464;SHT31;48512;48.552;9.380;2023-02-28T06:05:39;-0.23;74.90
62464;SHT31;48512;48.552;9.380;2023-02-28T06:08:05;-0.26;73.92
62464;SHT31;48512;48.552;9.380;2023-02-28T06:10:34;-0.28;73.84
62464;SHT31;48512;48.552;9.380;2023-02-28T06:13:01;-0.34;74.10
62464;SHT31;48512;48.552;9.380;2023-02-28T06:15:28;-0.05;76.19
62464;SHT31;48512;48.552;9.380;2023-02-28T06:17:53;1.83;90.45
62464;SHT31;48512;48.552;9.380;2023-02-28T06:20:21;1.25;83.24
62464;SHT31;48512;48.552;9.380;2023-02-28T06:22:46;0.87;76.57
62464;SHT31;48512;48.552;9.380;2023-02-28T06:25:12;0.69;73.76
62464;SHT31;48512;48.552;9.380;2023-02-28T06:27:37;0.38;72.54
62464;SHT31;48512;48.552;9.380;2023-02-28T06:30:03;0.19;72.49
62464;SHT31;48512;48.552;9.380;2023-02-28T06:32:28;0.19;71.02
62464;SHT31;48512;48.552;9.380;2023-02-28T06:34:54;-0.03;71.04
62464;SHT31;48512;48.552;9.380;2023-02-28T06:37:21;-0.10;71.10
62464;SHT31;48512;48.552;9.380;2023-02-28T06:39:46;-0.14;71.33
62464;SHT31;48512;48.552;9.380;2023-02-28T06:42:12;-0.11;71.76
62464;SHT31;48512;48.552;9.380;2023-02-28T06:44:38;-0.09;72.32
62464;SHT31;48512;48.552;9.380;2023-02-28T06:47:05;-0.05;71.68
62464;SHT31;48512;48.552;9.380;2023-02-28T06:49:32;0.04;71.44
62464;SHT31;48512;48.552;9.380;2023-02-28T06:51:58;0.08;71.03
62464;SHT31;48512;48.552;9.380;2023-02-28T06:54:24;0.05;70.94
62464;SHT31;48512;48.552;9.380;2023-02-28T06:56:49;-0.06;71.24
62464;SHT31;48512;48.552;9.380;2023-02-28T06:59:15;-0.09;70.21
62464;SHT31;48512;48.552;9.380;2023-02-28T07:01:41;-0.11;70.18
62464;SHT31;48512;48.552;9.380;2023-02-28T07:04:06;-0.17;69.78
62464;SHT31;48512;48.552;9.380;2023-02-28T07:06:32;-0.23;70.23
62464;SHT31;48512;48.552;9.380;2023-02-28T07:08:58;-0.26;70.32
62464;SHT31;48512;48.552;9.380;2023-02-28T07:11:26;-0.26;70.40
62464;SHT31;48512;48.552;9.380;2023-02-28T07:13:53;-0.13;70.03
62464;SHT31;48512;48.552;9.380;2023-02-28T07:16:19;-0.27;70.22
62464;SHT31;48512;48.552;9.380;2023-02-28T07:18:45;-0.23;70.11
62464;SHT31;48512;48.552;9.380;2023-02-28T07:21:10;-0.07;70.05
62464;SHT31;48512;48.552;9.380;2023-02-28T07:23:37;-0.33;69.90
62464;SHT31;48512;48.552;9.380;2023-02-28T07:26:08;-0.44;70.30
62464;SHT31;48512;48.552;9.380;2023-02-28T07:28:36;-0.45;70.79
62464;SHT31;48512;48.552;9.380;2023-02-28T07:31:05;-0.14;70.47
62464;SHT31;48512;48.552;9.380;2023-02-28T07:33:31;-0.30;70.73
62464;SHT31;48512;48.552;9.380;2023-02-28T07:36:05;-0.26;70.40
62464;SHT31;48512;48.552;9.380;2023-02-28T07:38:33;-0.21;70.99
62464;SHT31;48512;48.552;9.380;2023-02-28T07:40:58;-0.11;70.36
62464;SHT31;48512;48.552;9.380;2023-02-28T07:43:23;-0.13;70.30
62464;SHT31;48512;48.552;9.380;2023-02-28T07:45:49;-0.28;70.50
62464;SHT31;48512;48.552;9.380;2023-02-28T07:48:14;-0.36;70.97
62464;SHT31;48512;48.552;9.380;2023-02-28T07:50:40;-0.23;70.74
62464;SHT31;48512;48.552;9.380;2023-02-28T07:53:05;-0.30;70.24
62464;SHT31;48512;48.552;9.380;2023-02-28T07:55:30;-0.38;70.65
62464;SHT31;48512;48.552;9.380;2023-02-28T07:57:57;-0.10;69.97
62464;SHT31;48512;48.552;9.380;2023-02-28T08:00:23;-0.18;69.76
62464;SHT31;48512;48.552;9.380;2023-02-28T08:02:49;0.01;69.49
62464;SHT31;48512;48.552;9.380;2023-02-28T08:05:14;-0.06;69.49
62464;SHT31;48512;48.552;9.380;2023-02-28T08:07:39;-0.03;69.46
62464;SHT31;48512;48.552;9.380;2023-02-28T08:10:05;-0.07;68.64
62464;SHT31;48512;48.552;9.380;2023-02-28T08:12:31;-0.17;69.66
62464;SHT31;48512;48.552;9.380;2023-02-28T08:14:56;-0.21;70.30
62464;SHT31;48512;48.552;9.380;2023-02-28T08:17:22;-0.28;70.15
62464;SHT31;48512;48.552;9.380;2023-02-28T08:19:47;-0.14;69.76
62464;SHT31;48512;48.552;9.380;2023-02-28T08:22:13;-0.09;69.52
62464;SHT31;48512;48.552;9.380;2023-02-28T08:24:41;-0.05;69.23
62464;SHT31;48512;48.552;9.380;2023-02-28T08:27:07;0.01;69.25
62464;SHT31;48512;48.552;9.380;2023-02-28T08:29:32;0.17;68.67
62464;SHT31;48512;48.552;9.380;2023-02-28T08:31:57;-0.09;68.99
62464;SHT31;48512;48.552;9.380;2023-02-28T08:34:23;-0.16;69.20
62464;SHT31;48512;48.552;9.380;2023-02-28T08:36:49;0.11;68.71
62464;SHT31;48512;48.552;9.380;2023-02-28T08:39:14;0.08;68.90
62464;SHT31;48512;48.552;9.380;2023-02-28T08:41:42;0.01;68.34
62464;SHT31;48512;48.552;9.380;2023-02-28T08:44:07;0.07;68.16
62464;SHT31;48512;48.552;9.380;2023-02-28T08:46:33;0.05;68.90
62464;SHT31;48512;48.552;9.380;2023-02-28T08:48:58;0.15;68.83
62464;SHT31;48512;48.552;9.380;2023-02-28T08:51:27;0.17;68.07
62464;SHT31;48512;48.552;9.380;2023-02-28T08:53:53;0.21;68.11
62464;SHT31;48512;48.552;9.380;2023-02-28T08:56:20;-0.06;68.43
62464;SHT31;48512;48.552;9.380;2023-02-28T08:58:47;0.08;68.65
62464;SHT31;48512;48.552;9.380;2023-02-28T09:03:41;0.41;68.02
62464;SHT31;48512;48.552;9.380;2023-02-28T09:06:07;0.62;67.25
62464;SHT31;48512;48.552;9.380;2023-02-28T09:08:33;0.59;67.29
62464;SHT31;48512;48.552;9.380;2023-02-28T09:10:59;0.80;67.06
62464;SHT31;48512;48.552;9.380;2023-02-28T09:13:26;0.86;66.79
62464;SHT31;48512;48.552;9.380;2023-02-28T09:15:52;0.80;67.09
62464;SHT31;48512;48.552;9.380;2023-02-28T09:18:18;0.97;66.87
62464;SHT31;48512;48.552;9.380;2023-02-28T09:20:44;0.76;67.16
62464;SHT31;48512;48.552;9.380;2023-02-28T09:23:11;0.86;67.03
62464;SHT31;48512;48.552;9.380;2023-02-28T09:25:37;0.93;66.70
62464;SHT31;48512;48.552;9.380;2023-02-28T09:28:03;1.13;66.16
62464;SHT31;48512;48.552;9.380;2023-02-28T09:30:30;1.30;65.86
62464;SHT31;48512;48.552;9.380;2023-02-28T09:32:55;1.27;65.60
62464;SHT31;48512;48.552;9.380;2023-02-28T09:35:22;1.16;65.89
62464;SHT31;48512;48.552;9.380;2023-02-28T09:37:49;0.98;65.89
62464;SHT31;48512;48.552;9.380;2023-02-28T09:40:15;1.08;65.24
62464;SHT31;48512;48.552;9.380;2023-02-28T09:42:45;1.27;65.23
62464;SHT31;48512;48.552;9.380;2023-02-28T09:47:48;1.17;64.81
62464;SHT31;48512;48.552;9.380;2023-02-28T09:50:29;1.21;65.31
62464;SHT31;48512;48.552;9.380;2023-02-28T09:52:55;1.32;65.07
62464;SHT31;48512;48.552;9.380;2023-02-28T09:55:30;1.36;65.03
62464;SHT31;48512;48.552;9.380;2023-02-28T09:57:57;1.51;65.11
62464;SHT31;48512;48.552;9.380;2023-02-28T10:00:32;1.46;64.24
62464;SHT31;48512;48.552;9.380;2023-02-28T10:08:22;1.52;64.82
62464;SHT31;48512;48.552;9.380;2023-02-28T10:10:54;1.60;64.24
62464;SHT31;48512;48.552;9.380;2023-02-28T10:13:31;1.75;63.73
62464;SHT31;48512;48.552;9.380;2023-02-28T10:16:03;1.89;64.93
62464;SHT31;48512;48.552;9.380;2023-02-28T10:18:39;1.84;63.20
62464;SHT31;48512;48.552;9.380;2023-02-28T10:21:34;1.77;63.49
62464;SHT31;48512;48.552;9.380;2023-02-28T10:26:41;2.14;62.42
62464;SHT31;48512;48.552;9.380;2023-02-28T10:29:09;2.37;62.81
62464;SHT31;48512;48.552;9.380;2023-02-28T10:31:35;1.90;62.51
62464;SHT31;48512;48.552;9.380;2023-02-28T10:34:00;2.86;62.08
62464;SHT31;48512;48.552;9.380;2023-02-28T10:36:26;3.31;59.72
62464;SHT31;48512;48.552;9.380;2023-02-28T10:38:53;3.45;60.53
62464;SHT31;48512;48.552;9.380;2023-02-28T10:43:51;3.66;59.93
62464;SHT31;48512;48.552;9.380;2023-02-28T10:46:18;4.16;58.81
62464;SHT31;48512;48.552;9.380;2023-02-28T10:49:02;4.09;57.79
62464;SHT31;48512;48.552;9.380;2023-02-28T10:51:35;3.99;57.54
62464;SHT31;48512;48.552;9.380;2023-02-28T10:54:02;3.93;58.01
62464;SHT31;48512;48.552;9.380;2023-02-28T10:56:28;4.09;57.87
62464;SHT31;48512;48.552;9.380;2023-02-28T11:01:40;4.17;57.63
62464;SHT31;48512;48.552;9.380;2023-02-28T11:07:10;5.59;53.73
62464;SHT31;48512;48.552;9.380;2023-02-28T11:09:41;6.06;53.00
62464;SHT31;48512;48.552;9.380;2023-02-28T11:14:49;6.53;51.46
62464;SHT31;48512;48.552;9.380;2023-02-28T11:17:24;6.64;51.82
62464;SHT31;48512;48.552;9.380;2023-02-28T11:19:54;7.03;51.23
62464;SHT31;48512;48.552;9.380;2023-02-28T11:22:27;7.81;48.56
62464;SHT31;48512;48.552;9.380;2023-02-28T11:24:55;7.19;49.38
62464;SHT31;48512;48.552;9.380;2023-02-28T11:29:50;6.84;50.57
62464;SHT31;48512;48.552;9.380;2023-02-28T11:32:21;6.88;52.33
62464;SHT31;48512;48.552;9.380;2023-02-28T11:35:00;7.50;49.54
62464;SHT31;48512;48.552;9.380;2023-02-28T11:37:26;8.03;49.00
62464;SHT31;48512;48.552;9.380;2023-02-28T11:39:52;6.79;50.92
62464;SHT31;48512;48.552;9.380;2023-02-28T11:45:58;8.07;55.86
62464;SHT31;48512;48.552;9.380;2023-02-28T11:48:33;9.32;47.74
62464;SHT31;48512;48.552;9.380;2023-02-28T11:56:49;9.11;46.49
62464;SHT31;48512;48.552;9.380;2023-02-28T12:02:06;10.41;42.96
62464;SHT31;48512;48.552;9.380;2023-02-28T12:05:08;10.57;44.90
62464;SHT31;48512;48.552;9.380;2023-02-28T12:13:23;9.26;45.61
62464;SHT31;48512;48.552;9.380;2023-02-28T12:16:23;10.04;45.13
62464;SHT31;48512;48.552;9.380;2023-02-28T12:19:19;10.76;43.10
62464;SHT31;48512;48.552;9.380;2023-02-28T12:27:34;11.46;40.91
62464;SHT31;48512;48.552;9.380;2023-02-28T12:30:24;12.07;41.40
62464;SHT31;48512;48.552;9.380;2023-02-28T12:33:12;9.09;43.58
62464;SHT31;48512;48.552;9.380;2023-02-28T12:35:51;10.28;43.31
62464;SHT31;48512;48.552;9.380;2023-02-28T12:38:56;11.48;40.52
62464;SHT31;48512;48.552;9.380;2023-02-28T12:41:45;10.91;42.21
62464;SHT31;48512;48.552;9.380;2023-02-28T12:44:22;9.90;44.76
62464;SHT31;48512;48.552;9.380;2023-02-28T12:46:51;10.91;42.35
62464;SHT31;48512;48.552;9.380;2023-02-28T12:49:38;11.34;41.79
62464;SHT31;48512;48.552;9.380;2023-02-28T12:52:05;12.14;39.26
62464;SHT31;48512;48.552;9.380;2023-02-28T12:54:48;13.09;38.28
62464;SHT31;48512;48.552;9.380;2023-02-28T12:57:25;12.11;39.06
62464;SHT31;48512;48.552;9.380;2023-02-28T13:00:00;13.02;38.62
62464;SHT31;48512;48.552;9.380;2023-02-28T13:10:47;13.43;37.42
62464;SHT31;48512;48.552;9.380;2023-02-28T13:13:35;13.50;35.73
62464;SHT31;48512;48.552;9.380;2023-02-28T13:18:38;13.82;36.94
62464;SHT31;48512;48.552;9.380;2023-02-28T13:21:09;14.33;36.29
62464;SHT31;48512;48.552;9.380;2023-02-28T13:23:39;13.65;36.59
62464;SHT31;48512;48.552;9.380;2023-02-28T13:26:05;14.27;36.24
62464;SHT31;48512;48.552;9.380;2023-02-28T13:39:54;16.87;38.21
62464;SHT31;48512;48.552;9.380;2023-02-28T13:47:44;17.40;34.12
62464;SHT31;48512;48.552;9.380;2023-02-28T13:50:16;17.36;31.58
62464;SHT31;48512;48.552;9.380;2023-02-28T14:06:50;18.42;30.02
62464;SHT31;48512;48.552;9.380;2023-02-28T14:09:35;18.85;31.97
62464;SHT31;48512;48.552;9.380;2023-02-28T14:20:40;16.02;32.05
62464;SHT31;48512;48.552;9.380;2023-02-28T14:32:06;14.68;34.90
62464;SHT31;48512;48.552;9.380;2023-02-28T14:37:27;14.51;34.24
62464;SHT31;48512;48.552;9.380;2023-02-28T14:39:54;14.31;34.93
62464;SHT31;48512;48.552;9.380;2023-02-28T14:42:35;14.40;34.91
62464;SHT31;48512;48.552;9.380;2023-02-28T14:45:04;14.50;35.27
62464;SHT31;48512;48.552;9.380;2023-02-28T14:47:33;14.88;34.71
62464;SHT31;48512;48.552;9.380;2023-02-28T14:50:00;14.47;34.37
62464;SHT31;48512;48.552;9.380;2023-02-28T14:52:28;13.83;35.66
62464;SHT31;48512;48.552;9.380;2023-02-28T14:55:05;14.23;35.75
62464;SHT31;48512;48.552;9.380;2023-02-28T14:57:38;14.58;34.60
62464;SHT31;48512;48.552;9.380;2023-02-28T15:00:13;14.06;34.99
62464;SHT31;48512;48.552;9.380;2023-02-28T15:02:40;14.08;35.48
62464;SHT31;48512;48.552;9.380;2023-02-28T15:07:35;13.55;36.24
62464;SHT31;48512;48.552;9.380;2023-02-28T15:10:24;13.26;36.44
62464;SHT31;48512;48.552;9.380;2023-02-28T15:12:59;12.96;36.85
62464;SHT31;48512;48.552;9.380;2023-02-28T15:15:29;12.46;37.76
62464;SHT31;48512;48.552;9.380;2023-02-28T15:17:59;12.10;38.44
62464;SHT31;48512;48.552;9.380;2023-02-28T15:20:26;11.80;39.07
62464;SHT31;48512;48.552;9.380;2023-02-28T15:22:52;11.77;38.94
62464;SHT31;48512;48.552;9.380;2023-02-28T15:25:22;12.03;38.61
62464;SHT31;48512;48.552;9.380;2023-02-28T15:27:51;12.25;38.48
62464;SHT31;48512;48.552;9.380;2023-02-28T15:30:20;12.51;38.59
62464;SHT31;48512;48.552;9.380;2023-02-28T15:33:23;12.55;38.49
62464;SHT31;48512;48.552;9.380;2023-02-28T15:35:48;12.59;38.87
62464;SHT31;48512;48.552;9.380;2023-02-28T15:38:26;12.72;37.85
62464;SHT31;48512;48.552;9.380;2023-02-28T15:40:58;12.78;37.04
62464;SHT31;48512;48.552;9.380;2023-02-28T15:43:35;12.14;38.02
62464;SHT31;48512;48.552;9.380;2023-02-28T15:46:07;11.52;39.08
62464;SHT31;48512;48.552;9.380;2023-02-28T15:48:58;11.28;40.09
62464;SHT31;48512;48.552;9.380;2023-02-28T15:51:36;11.52;42.56
62464;SHT31;48512;48.552;9.380;2023-02-28T15:54:06;11.48;39.47
62464;SHT31;48512;48.552;9.380;2023-02-28T15:56:46;11.28;40.31
62464;SHT31;48512;48.552;9.380;2023-02-28T15:59:16;11.36;39.94
62464;SHT31;48512;48.552;9.380;2023-02-28T16:01:43;11.17;40.36
62464;SHT31;48512;48.552;9.380;2023-02-28T16:04:17;10.98;40.81
62464;SHT31;48512;48.552;9.380;2023-02-28T16:06:47;11.00;40.66
62464;SHT31;48512;48.552;9.380;2023-02-28T16:09:25;10.74;41.05
62464;SHT31;48512;48.552;9.380;2023-02-28T16:11:54;9.74;42.54
62464;SHT31;48512;48.552;9.380;2023-02-28T16:14:22;10.06;42.54
62464;SHT31;48512;48.552;9.380;2023-02-28T16:16:54;10.56;49.99
62464;SHT31;48512;48.552;9.380;2023-02-28T16:19:22;11.12;44.81
62464;SHT31;48512;48.552;9.380;2023-02-28T16:21:48;10.81;42.21
62464;SHT31;48512;48.552;9.380;2023-02-28T16:24:14;10.64;41.41
62464;SHT31;48512;48.552;9.380;2023-02-28T16:26:41;10.14;42.34
62464;SHT31;48512;48.552;9.380;2023-02-28T16:29:09;9.44;43.07
62464;SHT31;48512;48.552;9.380;2023-02-28T16:31:37;9.11;43.83
62464;SHT31;48512;48.552;9.380;2023-02-28T16:34:04;8.70;44.85
62464;SHT31;48512;48.552;9.380;2023-02-28T16:36:30;8.63;44.99
62464;SHT31;48512;48.552;9.380;2023-02-28T16:38:55;8.72;44.79
62464;SHT31;48512;48.552;9.380;2023-02-28T16:41:24;8.42;45.32
62464;SHT31;48512;48.552;9.380;2023-02-28T16:43:52;8.42;45.70
62464;SHT31;48512;48.552;9.380;2023-02-28T16:46:19;8.29;45.96
62464;SHT31;48512;48.552;9.380;2023-02-28T16:48:46;8.02;47.03
62464;SHT31;48512;48.552;9.380;2023-02-28T16:51:15;7.86;47.27
62464;SHT31;48512;48.552;9.380;2023-02-28T16:53:41;7.88;47.67
62464;SHT31;48512;48.552;9.380;2023-02-28T16:56:16;7.74;48.37
62464;SHT31;48512;48.552;9.380;2023-02-28T16:58:43;7.88;47.77
62464;SHT31;48512;48.552;9.380;2023-02-28T17:01:08;7.81;48.03
62464;SHT31;48512;48.552;9.380;2023-02-28T17:03:34;7.66;49.40
62464;SHT31;48512;48.552;9.380;2023-02-28T17:06:02;7.64;49.37
62464;SHT31;48512;48.552;9.380;2023-02-28T17:08:27;7.53;49.57
62464;SHT31;48512;48.552;9.380;2023-02-28T17:10:54;7.39;49.66
62464;SHT31;48512;48.552;9.380;2023-02-28T17:13:20;6.99;50.63
62464;SHT31;48512;48.552;9.380;2023-02-28T17:15:45;7.05;50.65
62464;SHT31;48512;48.552;9.380;2023-02-28T17:18:15;6.12;51.52
62464;SHT31;48512;48.552;9.380;2023-02-28T17:20:41;5.84;52.74
62464;SHT31;48512;48.552;9.380;2023-02-28T17:23:07;5.48;53.99
62464;SHT31;48512;48.552;9.380;2023-02-28T17:25:33;5.91;53.51
62464;SHT31;48512;48.552;9.380;2023-02-28T17:27:58;6.05;52.97
62464;SHT31;48512;48.552;9.380;2023-02-28T17:30:26;6.12;53.17
62464;SHT31;48512;48.552;9.380;2023-02-28T17:32:55;6.14;53.27
62464;SHT31;48512;48.552;9.380;2023-02-28T17:35:21;6.09;53.66
62464;SHT31;48512;48.552;9.380;2023-02-28T17:37:47;6.12;54.02
62464;SHT31;48512;48.552;9.380;2023-02-28T17:40:18;6.14;54.27
62464;SHT31;48512;48.552;9.380;2023-02-28T17:42:44;5.76;55.67
62464;SHT31;48512;48.552;9.380;2023-02-28T17:45:11;5.48;56.63
62464;SHT31;48512;48.552;9.380;2023-02-28T17:47:37;5.10;57.93
62464;SHT31;48512;48.552;9.380;2023-02-28T17:50:04;4.93;58.66
62464;SHT31;48512;48.552;9.380;2023-02-28T17:52:29;4.86;59.10
62464;SHT31;48512;48.552;9.380;2023-02-28T17:54:55;4.64;59.56
62464;SHT31;48512;48.552;9.380;2023-02-28T17:57:20;4.36;60.51
62464;SHT31;48512;48.552;9.380;2023-02-28T17:59:46;3.96;61.85
62464;SHT31;48512;48.552;9.380;2023-02-28T18:02:12;3.82;62.36
62464;SHT31;48512;48.552;9.380;2023-02-28T18:04:38;3.81;62.51
62464;SHT31;48512;48.552;9.380;2023-02-28T18:07:06;3.72;62.95
62464;SHT31;48512;48.552;9.380;2023-02-28T18:09:31;3.66;62.95
62464;SHT31;48512;48.552;9.380;2023-02-28T18:11:57;3.32;63.99
62464;SHT31;48512;48.552;9.380;2023-02-28T18:14:24;3.07;64.87
62464;SHT31;48512;48.552;9.380;2023-02-28T18:16:52;3.09;65.02
62464;SHT31;48512;48.552;9.380;2023-02-28T18:19:18;2.93;65.48
62464;SHT31;48512;48.552;9.380;2023-02-28T18:21:45;2.83;65.93